Tiempo atmosférico en la estación meteorológica de Andorra, Teruel (762 m.)

Fecha
DESCASC
Temp. máxima en grados centígrados (hora)
DESCASC
Temp. mínima en grados centígrados (hora)
DESCASC
Temp. media en grados centígrados
DESCASC
Racha de viento máxima en m/sg (hora)
DESCASC
Velocidad máxima media en intervalos de 10 minutos(hora)
DESCASC
Precipitaciones diarias en mm
DESCASC
Precipitaciones de 00:00 a 06:00 en mm
DESCASC
Precipitaciones de 06:00 a 12:00 en mm
DESCASC
Precipitaciones de 12:00 a 18:00 en mm
DESCASC
Precipitaciones de 18:00 a 24:00 en mm
DESCASC
22-10-2017 15.8 (15:40) 7 (08:30) 11.4 12.78 (12:20) 9.17 (21:30) 0 0 0 0 0
21-10-2017 23.8 (16:30) 12 (23:59) 17.9 13.61 (14:20) 10.56 (18:40) 0 0 0 0 0
20-10-2017 20.9 (14:40) 9.3 (08:40) 15.1 10.83 (00:20) 9.17 (00:10) 0 0 0 0 0
19-10-2017 14.9 (17:40) 7.3 (00:00) 11.1 11.67 (21:50) 9.17 (23:40) 0 0 0 0 0
18-10-2017 19.7 (14:50) 12 (00:00) 15.9 18.89 (15:30) 13.61 (15:30) 0.2 0 0 0.2 0
17-10-2017 21.8 (16:40) 10.7 (00:00) 16.2 17.78 (22:30) 12.22 (22:30) 0.4 0 0 0 0.4
16-10-2017 22.4 (16:30) 11.8 (00:00) 17.1 8.89 (16:30) 6.11 (16:00) 0 0 0 0 0
15-10-2017 21.5 (17:40) 12.5 (00:00) 17 7.78 (16:40) 5.83 (16:30) 0 0 0 0 0
14-10-2017 22.9 (16:40) 14 (00:00) 18.4 8.61 (16:40) 6.11 (16:30) 0 0 0 0 0
13-10-2017 23.1 (17:10) 13.9 (00:00) 18.5 6.67 (16:50) 4.72 (16:00) 0 0 0 0 0
12-10-2017 21.7 (16:30) 14.2 (00:00) 18 5.56 (14:50) 4.72 (07:20) 0 0 0 0 0
11-10-2017 22.7 (17:00) 14.4 (00:00) 18.6 6.11 (15:40) 5 (00:30) 0 0 0 0 0
10-10-2017 22.4 (15:40) 11.8 (00:00) 17.1 7.22 (15:30) 5.83 (00:40) 0 0 0 0 0
09-10-2017 22.8 (15:20) 10.8 (00:00) 16.8 12.5 (04:00) 10 (04:00) 0 0 0 0 0
08-10-2017 23.3 (17:30) 10.2 (00:00) 16.7 7.5 (23:50) 6.39 (23:40) 0 0 0 0 0
07-10-2017 18.7 (14:10) 8.4 (00:00) 13.6 14.72 (00:50) 10 (00:10) 0 0 0 0 0
06-10-2017 21.8 (16:50) 12 (00:00) 16.9 17.5 (21:10) 13.06 (21:30) 0 0 0 0 0
05-10-2017 27.3 (17:00) 15.2 (00:00) 21.2 14.17 (22:30) 10.28 (22:30) 0 0 0 0 0
04-10-2017 24.2 (16:40) 12.6 (00:00) 18.4 7.22 (14:40) 5 (01:20) 0 0 0 0 0
03-10-2017 24.9 (15:50) 14.1 (00:00) 19.5 9.44 (14:50) 5.83 (00:30) 0 0 0 0 0
02-10-2017 24.4 (17:40) 14.4 (00:00) 19.4 11.11 (10:50) 7.78 (10:50) 0 0 0 0 0
01-10-2017 19.5 (13:50) 13.8 (00:00) 16.7 13.33 (12:50) 9.17 (14:00) 0 0 0 0 0
30-09-2017 19.6 (00:00) 15.1 (00:00) 17.4 8.33 (13:40) 6.11 (13:40) 0 0 0 0 0
29-09-2017 24 (16:50) 14.7 (00:00) 19.3 6.67 (16:00) 4.72 (19:00) 0 0 0 0 0
28-09-2017 23.7 (16:50) 13.8 (00:00) 18.8 9.17 (19:10) 7.5 (19:10) 0 0 0 0 0
27-09-2017 23 (16:40) 13.9 (00:00) 18.4 10.28 (18:20) 7.22 (18:40) 0 0 0 0 0
26-09-2017 21 (15:20) 12.4 (00:00) 16.7 12.78 (00:30) 10.56 (00:30) 0 0 0 0 0
25-09-2017 24.3 (15:40) 14.7 (00:00) 19.5 12.5 (19:00) 9.17 (07:20) 0 0 0 0 0
24-09-2017 25.3 (16:20) 15.3 (00:00) 20.3 7.78 (17:20) 5.28 (17:30) 0 0 0 0 0
23-09-2017 22 (17:20) 11.3 (00:00) 16.7 6.94 (15:10) 4.72 (16:00) 0 0 0 0 0

Gráficas

Temp. máximas Temp. mínimas Temp. medias Precipitaciones Rachas de viento máximas Velocidades máximas media en intervalos de 10 minutos

Datos horarios

Fecha y hora oficial Temperatura (ºC) Velocidad del viento (km/h) Dirección del viento Racha (km/h) Dirección de racha Precipitación (mm) Presión (hPa) Tendencia (hPa) Humedad (%)
2017-10-22 23:00:00 9.3 30 Oeste 39 Oeste 0 -- -- 73
2017-10-22 22:00:00 9.9 31 Oeste 41 Oeste 0 -- -- 70
2017-10-22 21:00:00 10.6 28 Oeste 41 Oeste 0 -- -- 66
2017-10-22 20:00:00 11.4 23 Oeste 39 Oeste 0 -- -- 63
2017-10-22 19:00:00 12.8 20 Noroeste 42 Noroeste 0 -- -- 57
2017-10-22 18:00:00 14.6 28 Noroeste 39 Noroeste 0 -- -- 52
2017-10-22 17:00:00 15.5 28 Noroeste 41 Noroeste 0 -- -- 48
2017-10-22 16:00:00 15.7 28 Noroeste 44 Noroeste 0 -- -- 46
2017-10-22 15:00:00 15.1 31 Noroeste 42 Noroeste 0 -- -- 51
2017-10-22 14:00:00 14.7 30 Noroeste 44 Oeste 0 -- -- 51
2017-10-22 13:00:00 14 30 Oeste 46 Oeste 0 -- -- 54
2017-10-22 12:00:00 12.5 25 Oeste 39 Oeste 0 -- -- 62
2017-10-22 11:00:00 10.7 27 Oeste 32 Oeste 0 -- -- 71
2017-10-22 10:00:00 8.9 17 Oeste 24 Oeste 0 -- -- 79
2017-10-22 09:00:00 7.2 22 Oeste 25 Oeste 0 -- -- 85
2017-10-22 08:00:00 7.1 20 Oeste 22 Oeste 0 -- -- 85
2017-10-22 07:00:00 7.8 19 Oeste 25 Oeste 0 -- -- 82
2017-10-22 06:00:00 8 20 Oeste 33 Oeste 0 -- -- 81
2017-10-22 05:00:00 9.2 28 Oeste 35 Oeste 0 -- -- 77
2017-10-22 04:00:00 9.3 21 Oeste 28 Oeste 0 -- -- 77
2017-10-22 03:00:00 9.6 18 Oeste 29 Oeste 0 -- -- 75
2017-10-22 02:00:00 9.9 20 Oeste 31 Oeste 0 -- -- 72
2017-10-22 01:00:00 10.8 23 Oeste 37 Oeste 0 -- -- 68
2017-10-22 00:00:00 12 26 Oeste 37 Oeste 0 -- -- 67
2017-10-21 23:00:00 12.3 28 Oeste 38 Oeste 0 -- -- 71
2017-10-21 22:00:00 13.1 22 Oeste 32 Noroeste 0 -- -- 68
2017-10-21 21:00:00 13.6 25 Oeste 37 Noroeste 0 -- -- 68
2017-10-21 20:00:00 14 23 Oeste 43 Noroeste 0 -- -- 73
2017-10-21 19:00:00 15.8 34 Noroeste 48 Noroeste 0 -- -- 72
2017-10-21 18:00:00 19.8 25 Norte 41 Norte 0 -- -- 63
2017-10-21 17:00:00 22.6 19 Oeste 39 Oeste 0 -- -- 47
2017-10-21 16:00:00 23 26 Oeste 41 Oeste 0 -- -- 45
2017-10-21 15:00:00 22.3 31 Oeste 49 Oeste 0 -- -- 48
2017-10-21 14:00:00 22.6 32 Oeste 44 Oeste 0 -- -- 49
2017-10-21 13:00:00 21.3 33 Oeste 48 Oeste 0 -- -- 56
2017-10-21 12:00:00 19.6 27 Oeste 36 Oeste 0 -- -- 63
2017-10-21 11:00:00 17.7 15 Oeste 32 Oeste 0 -- -- 68
2017-10-21 10:00:00 16.3 26 Oeste 37 Oeste 0 -- -- 71
2017-10-21 09:00:00 14.6 28 Oeste 37 Oeste 0 -- -- 75
2017-10-21 08:00:00 14.1 22 Oeste 28 Oeste 0 -- -- 76
2017-10-21 07:00:00 13.4 23 Oeste 27 Oeste 0 -- -- 79
2017-10-21 06:00:00 14 16 Oeste 21 Oeste 0 -- -- 76
2017-10-21 05:00:00 14.1 13 Oeste 23 Sudoeste 0 -- -- 74
2017-10-21 04:00:00 14.6 18 Sudoeste 26 Oeste 0 -- -- 73
2017-10-21 03:00:00 14.7 20 Sudoeste 27 Sudoeste 0 -- -- 71
2017-10-21 02:00:00 14.3 18 Oeste 25 Oeste 0 -- -- 71
2017-10-21 01:00:00 14.2 17 Oeste 21 Oeste 0 -- -- 69
2017-10-21 00:00:00 14.2 16 Oeste 19 Oeste 0 -- -- 67
2017-10-20 23:00:00 15 12 Sudoeste 16 Sur 0 -- -- 65
2017-10-20 22:00:00 15.7 12 Sur 14 Sur 0 -- -- 63
2017-10-20 21:00:00 16.6 7 Sur 15 Este 0 -- -- 60
2017-10-20 20:00:00 16.9 13 Sudeste 17 Este 0 -- -- 59
2017-10-20 19:00:00 17.6 14 Este 19 Este 0 -- -- 58
2017-10-20 18:00:00 18.5 13 Nordeste 23 Nordeste 0 -- -- 56
2017-10-20 17:00:00 19 18 Este 24 Este 0 -- -- 54
2017-10-20 16:00:00 19.6 11 Nordeste 23 Nordeste 0 -- -- 52
2017-10-20 15:00:00 19.8 14 Este 20 Nordeste 0 -- -- 50
2017-10-20 14:00:00 19.2 8 Oeste 24 Oeste 0 -- -- 49
2017-10-20 13:00:00 18.8 9 Noroeste 20 Oeste 0 -- -- 50
2017-10-20 12:00:00 16.9 13 Oeste 22 Oeste 0 -- -- 54
2017-10-20 11:00:00 14.1 15 Oeste 25 Oeste 0 -- -- 63
2017-10-20 10:00:00 11.5 17 Oeste 22 Oeste 0 -- -- 73
2017-10-20 09:00:00 9.7 20 Oeste 26 Oeste 0 -- -- 77
2017-10-20 08:00:00 9.9 18 Sudoeste 31 Oeste 0 -- -- 73
2017-10-20 07:00:00 9.7 24 Oeste 32 Oeste 0 -- -- 74
2017-10-20 06:00:00 10.2 27 Oeste 33 Oeste 0 -- -- 72
2017-10-20 05:00:00 10.2 26 Oeste 32 Oeste 0 -- -- 73
2017-10-20 04:00:00 11 28 Oeste 38 Oeste 0 -- -- 71
2017-10-20 03:00:00 11.2 28 Oeste 33 Oeste 0 -- -- 71
2017-10-20 02:00:00 11.3 24 Oeste 36 Oeste 0 -- -- 71
2017-10-20 01:00:00 11.5 29 Oeste 39 Oeste 0 -- -- 70
2017-10-20 00:00:00 11.4 33 Oeste 40 Oeste 0 -- -- 71
2017-10-19 23:00:00 11.4 30 Oeste 37 Oeste 0 -- -- 78
2017-10-19 22:00:00 12.4 30 Oeste 42 Oeste 0 -- -- 73
2017-10-19 21:00:00 12.9 27 Noroeste 35 Noroeste 0 -- -- 70
2017-10-19 20:00:00 13.3 26 Noroeste 35 Noroeste 0 -- -- 69
2017-10-19 19:00:00 14 18 Noroeste 32 Noroeste 0 -- -- 65
2017-10-19 18:00:00 14.6 23 Noroeste 33 Noroeste 0 -- -- 62
2017-10-19 17:00:00 14 16 Noroeste 31 Noroeste 0 -- -- 65
2017-10-19 16:00:00 14 15 Noroeste 24 Noroeste 0 -- -- 64
2017-10-19 15:00:00 14 14 Noroeste 29 Noroeste 0 -- -- 63
2017-10-19 14:00:00 13.3 16 Noroeste 24 Noroeste 0 -- -- 68
2017-10-19 13:00:00 13.6 14 Noroeste 23 Norte 0 -- -- 63
2017-10-19 12:00:00 12.6 14 Oeste 28 Oeste 0 -- -- 64
2017-10-19 11:00:00 11.1 26 Oeste 35 Oeste 0 -- -- 68
2017-10-19 10:00:00 9.3 23 Oeste 29 Oeste 0 -- -- 74
2017-10-19 09:00:00 7.3 16 Oeste 24 Oeste 0 -- -- 80
2017-10-19 08:00:00 7.7 18 Oeste 31 Oeste 0 -- -- 78
2017-10-19 07:00:00 7.9 16 Oeste 32 Oeste 0 -- -- 76
2017-10-19 06:00:00 8.5 25 Sudoeste 35 Oeste 0 -- -- 74
2017-10-19 05:00:00 8.9 24 Oeste 32 Sudoeste 0 -- -- 75
2017-10-19 04:00:00 9.2 15 Oeste 37 Sudoeste 0 -- -- 74
2017-10-19 03:00:00 9.7 27 Oeste 32 Oeste 0 -- -- 72
2017-10-19 02:00:00 10 13 Oeste 18 Sudoeste 0 -- -- 73
2017-10-19 01:00:00 9.9 13 Sudoeste 31 Sudoeste 0 -- -- 74
2017-10-19 00:00:00 12 23 Oeste 32 Sudoeste 0 -- -- 67
2017-10-18 23:00:00 13.1 22 Oeste 36 Oeste 0 -- -- 67
2017-10-18 22:00:00 13.3 28 Oeste 33 Sudoeste 0 -- -- 76
2017-10-18 21:00:00 12.7 20 Oeste 38 Oeste 0 -- -- 86
2017-10-18 20:00:00 13.6 28 Oeste 50 Oeste 0 -- -- 78
2017-10-18 19:00:00 16.8 21 Sudoeste 30 Sudoeste 0 -- -- 57
2017-10-18 18:00:00 17 24 Sudoeste 44 Sudoeste 0 -- -- 56
2017-10-18 17:00:00 17.3 19 Sur 41 Sur 0 -- -- 54
2017-10-18 16:00:00 16.8 31 Sudoeste 68 Sudoeste 0.2 -- -- 57
2017-10-18 15:00:00 19.4 35 Sudoeste 55 Sudoeste 0 -- -- 52
2017-10-18 14:00:00 17.8 37 Sudoeste 60 Sudoeste 0 -- -- 58
2017-10-18 13:00:00 18.2 38 Sudoeste 51 Sudoeste 0 -- -- 56
2017-10-18 12:00:00 19 18 Sudeste 36 Sudeste 0 -- -- 64
2017-10-18 11:00:00 17.5 12 Este 30 Sudeste 0 -- -- 75
2017-10-18 10:00:00 17.2 14 Sudeste 26 Sudeste 0 -- -- 74
2017-10-18 09:00:00 16.3 9 Sur 33 Sur 0 -- -- 78
2017-10-18 08:00:00 16.2 22 Sur 33 Sur 0 -- -- 76
2017-10-18 07:00:00 16.2 15 Sur 31 Sur 0 -- -- 73
2017-10-18 06:00:00 15.9 16 Sur 26 Sur 0 -- -- 71
2017-10-18 05:00:00 14.9 5 Sur 9 Sudeste 0 -- -- 76
2017-10-18 04:00:00 15.3 3 Sudoeste 22 Sudeste 0 -- -- 76
2017-10-18 03:00:00 16.3 9 Sudeste 23 Sudeste 0 -- -- 69
2017-10-18 02:00:00 16 15 Sudoeste 24 Sudoeste 0 -- -- 71
2017-10-18 01:00:00 15 10 Sudoeste 18 Sur 0 -- -- 79
2017-10-18 00:00:00 15 13 Sur 43 Sudoeste 0.4 -- -- 82
2017-10-17 23:00:00 17.4 31 Sudoeste 64 Sudoeste 0 -- -- 58
2017-10-17 22:00:00 18.1 15 Sur 24 Sur 0 -- -- 66
2017-10-17 21:00:00 18.5 15 Sur 25 Sur 0 -- -- 65
2017-10-17 20:00:00 19 17 Sur 25 Sur 0 -- -- 64
2017-10-17 19:00:00 19.7 16 Este 22 Este 0 -- -- 61
2017-10-17 18:00:00 20.5 9 Norte 22 Nordeste 0 -- -- 55
2017-10-17 17:00:00 21.4 17 Nordeste 30 Este 0 -- -- 48
2017-10-17 16:00:00 21.2 22 Este 31 Este 0 -- -- 48
2017-10-17 15:00:00 20.7 21 Este 28 Nordeste 0 -- -- 47
2017-10-17 14:00:00 19.6 18 Este 23 Este 0 -- -- 51
2017-10-17 13:00:00 18.8 15 Este 22 Este 0 -- -- 51
2017-10-17 12:00:00 17.6 13 Este 17 Este 0 -- -- 47
2017-10-17 11:00:00 15.9 9 Este 12 Este 0 -- -- 61
2017-10-17 10:00:00 13.7 7 Sudeste 10 Este 0 -- -- 62
2017-10-17 09:00:00 12.7 4 Sudeste 11 Sudoeste 0 -- -- 65
2017-10-17 08:00:00 10.7 11 Sudoeste 13 Oeste 0 -- -- 78
2017-10-17 07:00:00 13 5 Este 9 Sudoeste 0 -- -- 75
2017-10-17 06:00:00 13.1 5 Sur 9 Sur 0 -- -- 62
2017-10-17 05:00:00 14 4 Este 8 Noroeste 0 -- -- 75
2017-10-17 04:00:00 14.4 4 Noroeste 9 Norte 0 -- -- 71
2017-10-17 03:00:00 15.8 4 Sudoeste 14 Sur 0 -- -- 54
2017-10-17 02:00:00 14 12 Sudoeste 17 Sur 0 -- -- 65
2017-10-17 01:00:00 13.8 15 Sur 23 Sur 0 -- -- 80
2017-10-17 00:00:00 14.4 20 Sur 23 Sur 0 -- -- 81
2017-10-16 23:00:00 15.8 17 Sur 22 Sur 0 -- -- 76
2017-10-16 22:00:00 18.1 16 Sur 23 Sur 0 -- -- 66
2017-10-16 21:00:00 18.8 14 Sur 17 Sudeste 0 -- -- 63
2017-10-16 20:00:00 19.9 7 Este 19 Este 0 -- -- 59
2017-10-16 19:00:00 21 18 Este 27 Este 0 -- -- 54
2017-10-16 18:00:00 22.1 19 Este 28 Este 0 -- -- 50
2017-10-16 17:00:00 22.3 21 Este 32 Este 0 -- -- 48
2017-10-16 16:00:00 22.2 22 Este 30 Este 0 -- -- 51
2017-10-16 15:00:00 21.7 19 Este 27 Este 0 -- -- 53
2017-10-16 14:00:00 20.6 18 Este 25 Este 0 -- -- 57
2017-10-16 13:00:00 20 13 Nordeste 19 Nordeste 0 -- -- 55
2017-10-16 12:00:00 18 8 Este 12 Este 0 -- -- 68
2017-10-16 11:00:00 16.7 5 Este 11 Oeste 0 -- -- 77
2017-10-16 10:00:00 14.8 5 Oeste 10 Oeste 0 -- -- 80
2017-10-16 09:00:00 13.1 0 Calma 8 Oeste 0 -- -- 82
2017-10-16 08:00:00 12.8 5 Sudoeste 10 Sur 0 -- -- 73
2017-10-16 07:00:00 12.5 6 Sur 10 Sur 0 -- -- 76
2017-10-16 06:00:00 14.3 0 Calma 5 Este 0 -- -- 82
2017-10-16 05:00:00 14.1 4 Oeste 6 Oeste 0 -- -- 79
2017-10-16 04:00:00 15.1 2 Oeste 12 Sur 0 -- -- 78
2017-10-16 03:00:00 15.9 8 Sur 16 Sur 0 -- -- 71
2017-10-16 02:00:00 16.3 15 Sur 17 Sudoeste 0 -- -- 72
2017-10-16 01:00:00 16.2 15 Sur 18 Sudoeste 0 -- -- 79
2017-10-16 00:00:00 16.3 18 Sur 23 Sur 0 -- -- 81
2017-10-15 23:00:00 16.9 18 Sur 23 Sur 0 -- -- 79
2017-10-15 22:00:00 18.3 11 Sur 15 Sudeste 0 -- -- 74
2017-10-15 21:00:00 18.9 10 Sur 18 Sudeste 0 -- -- 73
2017-10-15 20:00:00 19.6 10 Sudeste 18 Sur 0 -- -- 70
2017-10-15 19:00:00 20.9 10 Este 23 Este 0 -- -- 64
2017-10-15 18:00:00 21.5 20 Este 27 Este 0 -- -- 63
2017-10-15 17:00:00 21.3 19 Este 28 Nordeste 0 -- -- 64
2017-10-15 16:00:00 21.3 18 Nordeste 27 Nordeste 0 -- -- 64
2017-10-15 15:00:00 20.8 18 Nordeste 24 Nordeste 0 -- -- 65
2017-10-15 14:00:00 19.9 15 Nordeste 24 Este 0 -- -- 70
2017-10-15 13:00:00 18.8 14 Nordeste 19 Nordeste 0 -- -- 76
2017-10-15 12:00:00 15.9 10 Este 13 Este 0 -- -- 97
2017-10-15 11:00:00 14.3 5 Nordeste 10 Nordeste 0 -- -- 98
2017-10-15 10:00:00 12.9 5 Oeste 13 Oeste 0 -- -- 98
2017-10-15 09:00:00 12.5 11 Oeste 14 Oeste 0 -- -- 97
2017-10-15 08:00:00 13.3 0 Calma -- -- 0 -- -- 95
2017-10-15 07:00:00 14.2 0 Calma -- -- 0 -- -- 93
2017-10-15 06:00:00 14.7 0 Calma 3 Oeste 0 -- -- 92
2017-10-15 05:00:00 15.4 4 Oeste 6 Oeste 0 -- -- 89
2017-10-15 04:00:00 15.7 0 Calma 4 Sudeste 0 -- -- 87
2017-10-15 03:00:00 16.9 4 Este 8 Este 0 -- -- 82
2017-10-15 02:00:00 16.8 0 Calma 4 Este 0 -- -- 83
2017-10-15 01:00:00 17.7 3 Este 8 Sur 0 -- -- 79
2017-10-15 00:00:00 17.4 8 Sur 15 Sur 0 -- -- 81
2017-10-14 23:00:00 17 13 Sudoeste 18 Sur 0 -- -- 83
2017-10-14 22:00:00 18 15 Sudoeste 24 Sur 0 -- -- 79
2017-10-14 21:00:00 19.4 17 Sur 24 Sur 0 -- -- 74
2017-10-14 20:00:00 20.2 12 Sudeste 20 Sudeste 0 -- -- 70
2017-10-14 19:00:00 22 8 Sudeste 22 Este 0 -- -- 62
2017-10-14 18:00:00 22.8 16 Este 27 Este 0 -- -- 61
2017-10-14 17:00:00 22.9 19 Este 31 Este 0 -- -- 62
2017-10-14 16:00:00 22.6 20 Este 28 Este 0 -- -- 61
2017-10-14 15:00:00 22.1 20 Este 28 Este 0 -- -- 61
2017-10-14 14:00:00 21.4 20 Este 25 Este 0 -- -- 62
2017-10-14 13:00:00 20.5 12 Este 20 Nordeste 0 -- -- 66
2017-10-14 12:00:00 18.2 11 Este 16 Nordeste 0 -- -- 76
2017-10-14 11:00:00 16.6 5 Este 11 Este 0 -- -- 82
2017-10-14 10:00:00 16 5 Este 8 Este 0 -- -- 81
2017-10-14 09:00:00 15.6 0 Calma 4 Sudeste 0 -- -- 85
2017-10-14 08:00:00 15.1 3 Sudeste 6 Oeste 0 -- -- 87
2017-10-14 07:00:00 14.4 6 Oeste 12 Oeste 0 -- -- 87
2017-10-14 06:00:00 14.3 8 Oeste 16 Oeste 0 -- -- 84
2017-10-14 05:00:00 15.1 12 Oeste 15 Oeste 0 -- -- 84
2017-10-14 04:00:00 16.4 8 Oeste 9 Oeste 0 -- -- 80
2017-10-14 03:00:00 17.1 3 Norte 10 Norte 0 -- -- 77
2017-10-14 02:00:00 17.7 7 Norte 11 Norte 0 -- -- 73
2017-10-14 01:00:00 18.2 9 Norte 15 Oeste 0 -- -- 72
2017-10-14 00:00:00 17.7 12 Oeste 18 Sudoeste 0 -- -- 77
2017-10-13 23:00:00 18.1 12 Sudoeste 15 Sudoeste 0 -- -- 77
2017-10-13 22:00:00 20.2 0 Calma 10 Sudeste 0 -- -- 64
2017-10-13 21:00:00 20.4 5 Este 11 Nordeste 0 -- -- 62
2017-10-13 20:00:00 21.1 9 Nordeste 14 Este 0 -- -- 60
2017-10-13 19:00:00 22.2 9 Este 18 Este 0 -- -- 57
2017-10-13 18:00:00 22.8 15 Este 21 Este 0 -- -- 52
2017-10-13 17:00:00 23 17 Este 24 Este 0 -- -- 51
2017-10-13 16:00:00 23 17 Este 23 Este 0 -- -- 50
2017-10-13 15:00:00 22.7 15 Nordeste 23 Este 0 -- -- 53
2017-10-13 14:00:00 22.5 13 Nordeste 18 Nordeste 0 -- -- 57
2017-10-13 13:00:00 21.8 11 Este 19 Nordeste 0 -- -- 56
2017-10-13 12:00:00 20.8 10 Este 14 Este 0 -- -- 55
2017-10-13 11:00:00 20.4 3 Sudeste 8 Nordeste 0 -- -- 56
2017-10-13 10:00:00 17.4 5 Este 15 Oeste 0 -- -- 62
2017-10-13 09:00:00 14.8 6 Oeste 17 Oeste 0 -- -- 68
2017-10-13 08:00:00 15.4 5 Sudoeste 6 Sudoeste 0 -- -- 66
2017-10-13 07:00:00 16.3 2 Este 6 Este 0 -- -- 66
2017-10-13 06:00:00 16.7 2 Este 10 Nordeste 0 -- -- 64
2017-10-13 05:00:00 17.5 5 Este 11 Este 0 -- -- 60
2017-10-13 04:00:00 17.1 9 Noroeste 17 Oeste 0 -- -- 59
2017-10-13 03:00:00 17.7 3 Oeste 8 Oeste 0 -- -- 60
2017-10-13 02:00:00 18.6 2 Oeste 7 Sur 0 -- -- 56
2017-10-13 01:00:00 18.9 9 Sudoeste 13 Sudoeste 0 -- -- 57
2017-10-13 00:00:00 19.3 10 Sudoeste 14 Sudoeste 0 -- -- 60
2017-10-12 23:00:00 18.5 11 Sudoeste 19 Sur 0 -- -- 57
2017-10-12 22:00:00 18.7 14 Sur 17 Sur 0 -- -- 51
2017-10-12 21:00:00 20.3 10 Sur 15 Sur 0 -- -- 50
2017-10-12 20:00:00 20.3 10 Sudeste 12 Sudeste 0 -- -- 52
2017-10-12 19:00:00 20.7 4 Este 12 Nordeste 0 -- -- 55
2017-10-12 18:00:00 21.1 10 Nordeste 15 Nordeste 0 -- -- 53
2017-10-12 17:00:00 21.6 12 Nordeste 18 Nordeste 0 -- -- 54
2017-10-12 16:00:00 21.4 10 Nordeste 17 Nordeste 0 -- -- 53
2017-10-12 15:00:00 20.9 12 Nordeste 20 Este 0 -- -- 60
2017-10-12 14:00:00 20.3 12 Nordeste 20 Nordeste 0 -- -- 62
2017-10-12 13:00:00 20 12 Este 19 Nordeste 0 -- -- 58
2017-10-12 12:00:00 18.9 8 Nordeste 14 Este 0 -- -- 60
2017-10-12 11:00:00 18.6 8 Este 11 Nordeste 0 -- -- 57
2017-10-12 10:00:00 17.2 3 Este 6 Nordeste 0 -- -- 55
2017-10-12 09:00:00 15.8 4 Este 14 Oeste 0 -- -- 54
2017-10-12 08:00:00 14.9 13 Oeste 18 Oeste 0 -- -- 52
2017-10-12 07:00:00 14.8 15 Oeste 19 Oeste 0 -- -- 55
2017-10-12 06:00:00 15.3 13 Oeste 17 Oeste 0 -- -- 54
2017-10-12 05:00:00 15.3 14 Oeste 16 Oeste 0 -- -- 53
2017-10-12 04:00:00 15.9 12 Oeste 15 Oeste 0 -- -- 51
2017-10-12 03:00:00 16.9 7 Noroeste 13 Noroeste 0 -- -- 57
2017-10-12 02:00:00 17.1 12 Noroeste 17 Oeste 0 -- -- 50
2017-10-12 01:00:00 18.6 9 Noroeste 19 Oeste 0 -- -- 48
2017-10-12 00:00:00 17.8 15 Oeste 18 Oeste 0 -- -- 49
2017-10-11 23:00:00 20.1 16 Sur 19 Sur 0 -- -- 47
2017-10-11 22:00:00 20.3 14 Sur 17 Sur 0 -- -- 42
2017-10-11 21:00:00 21.1 10 Sur 14 Sur 0 -- -- 40
2017-10-11 20:00:00 21.1 6 Sudeste 9 Sudeste 0 -- -- 40
2017-10-11 19:00:00 21.9 5 Este 19 Este 0 -- -- 38
2017-10-11 18:00:00 22.4 15 Este 22 Nordeste 0 -- -- 37
2017-10-11 17:00:00 22.7 16 Este 22 Este 0 -- -- 37
2017-10-11 16:00:00 22.5 17 Este 22 Nordeste 0 -- -- 41
2017-10-11 15:00:00 21.8 14 Este 22 Nordeste 0 -- -- 45
2017-10-11 14:00:00 21.6 15 Nordeste 20 Nordeste 0 -- -- 48
2017-10-11 13:00:00 20.4 11 Este 17 Este 0 -- -- 49
2017-10-11 12:00:00 19.2 12 Este 18 Este 0 -- -- 50
2017-10-11 11:00:00 18.8 10 Este 12 Este 0 -- -- 51
2017-10-11 10:00:00 18.9 2 Sudeste 5 Este 0 -- -- 51
2017-10-11 09:00:00 16.7 2 Sudeste 9 Oeste 0 -- -- 57
2017-10-11 08:00:00 14.8 6 Sudoeste 10 Sudoeste 0 -- -- 59
2017-10-11 07:00:00 15.8 10 Sur 13 Sur 0 -- -- 57
2017-10-11 06:00:00 14.5 10 Sudoeste 15 Sudoeste 0 -- -- 58
2017-10-11 05:00:00 14.5 12 Sudoeste 14 Sudoeste 0 -- -- 56
2017-10-11 04:00:00 16.6 7 Noroeste 10 Noroeste 0 -- -- 52
2017-10-11 03:00:00 16 8 Oeste 17 Oeste 0 -- -- 49
2017-10-11 02:00:00 15.8 11 Sudoeste 15 Oeste 0 -- -- 57
2017-10-11 01:00:00 15.9 15 Oeste 20 Oeste 0 -- -- 44
2017-10-11 00:00:00 16.9 14 Oeste 15 Oeste 0 -- -- 44
2017-10-10 23:00:00 18.2 12 Sudoeste 13 Sudoeste 0 -- -- 36
2017-10-10 22:00:00 18.9 8 Sur 14 Sudeste 0 -- -- 35
2017-10-10 21:00:00 20.2 11 Sudeste 14 Sudeste 0 -- -- 33
2017-10-10 20:00:00 20.2 9 Este 15 Este 0 -- -- 32
2017-10-10 19:00:00 20.9 11 Este 18 Nordeste 0 -- -- 33
2017-10-10 18:00:00 21.5 14 Nordeste 22 Este 0 -- -- 30
2017-10-10 17:00:00 22.1 16 Nordeste 23 Nordeste 0 -- -- 33
2017-10-10 16:00:00 22.4 15 Este 26 Este 0 -- -- 32
2017-10-10 15:00:00 22 14 Este 24 Este 0 -- -- 33
2017-10-10 14:00:00 22 15 Nordeste 23 Este 0 -- -- 33
2017-10-10 13:00:00 21.4 9 Este 15 Este 0 -- -- 33
2017-10-10 12:00:00 21.1 9 Este 16 Nordeste 0 -- -- 33
2017-10-10 11:00:00 18.7 2 Noroeste 6 Nordeste 0 -- -- 36
2017-10-10 10:00:00 14.8 5 Oeste 12 Oeste 0 -- -- 42
2017-10-10 09:00:00 12.6 11 Oeste 19 Oeste 0 -- -- 47
2017-10-10 08:00:00 11.8 18 Oeste 22 Oeste 0 -- -- 49
2017-10-10 07:00:00 12.5 18 Oeste 20 Oeste 0 -- -- 48
2017-10-10 06:00:00 12.6 17 Oeste 20 Oeste 0 -- -- 47
2017-10-10 05:00:00 13.1 14 Oeste 22 Oeste 0 -- -- 46
2017-10-10 04:00:00 14 20 Oeste 24 Oeste 0 -- -- 44
2017-10-10 03:00:00 14.2 17 Oeste 21 Oeste 0 -- -- 43
2017-10-10 02:00:00 14.4 18 Oeste 24 Oeste 0 -- -- 43
2017-10-10 01:00:00 14.9 19 Oeste 24 Oeste 0 -- -- 42
2017-10-10 00:00:00 15 18 Oeste 23 Oeste 0 -- -- 43
2017-10-09 23:00:00 16.3 14 Sudoeste 17 Sudoeste 0 -- -- 41
2017-10-09 22:00:00 17.9 4 Sudoeste 10 Noroeste 0 -- -- 37
2017-10-09 21:00:00 18.4 7 Noroeste 9 Norte 0 -- -- 36
2017-10-09 20:00:00 19.4 6 Noroeste 13 Norte 0 -- -- 34
2017-10-09 19:00:00 21.8 10 Noroeste 22 Noroeste 0 -- -- 30
2017-10-09 18:00:00 22.5 14 Noroeste 24 Noroeste 0 -- -- 29
2017-10-09 17:00:00 22.7 15 Noroeste 26 Norte 0 -- -- 28
2017-10-09 16:00:00 22.2 14 Norte 22 Norte 0 -- -- 30
2017-10-09 15:00:00 22.7 10 Norte 17 Noroeste 0 -- -- 29
2017-10-09 14:00:00 21.4 7 Norte 18 Norte 0 -- -- 30
2017-10-09 13:00:00 20.5 10 Noroeste 21 Noroeste 0 -- -- 31
2017-10-09 12:00:00 18.5 12 Noroeste 26 Noroeste 0 -- -- 32
2017-10-09 11:00:00 16.6 18 Noroeste 30 Noroeste 0 -- -- 34
2017-10-09 10:00:00 14.2 19 Oeste 32 Oeste 0 -- -- 38
2017-10-09 09:00:00 11.1 14 Oeste 29 Oeste 0 -- -- 43
2017-10-09 08:00:00 10.8 18 Oeste 35 Oeste 0 -- -- 44
2017-10-09 07:00:00 11.5 25 Oeste 36 Oeste 0 -- -- 43
2017-10-09 06:00:00 14 31 Oeste 36 Oeste 0 -- -- 40
2017-10-09 05:00:00 13.9 27 Oeste 40 Oeste 0 -- -- 40
2017-10-09 04:00:00 14.8 36 Oeste 45 Oeste 0 -- -- 38
2017-10-09 03:00:00 13.9 31 Oeste 36 Oeste 0 -- -- 41
2017-10-09 02:00:00 13.9 24 Oeste 34 Oeste 0 -- -- 41
2017-10-09 01:00:00 14.3 24 Oeste 31 Oeste 0 -- -- 40
2017-10-09 00:00:00 14.3 22 Oeste 27 Oeste 0 -- -- 35
2017-10-08 23:00:00 16.1 19 Oeste 22 Oeste 0 -- -- 31
2017-10-08 22:00:00 17.5 11 Oeste 16 Oeste 0 -- -- 31
2017-10-08 21:00:00 19.2 5 Oeste 8 Norte 0 -- -- 30
2017-10-08 20:00:00 19.7 6 Norte 14 Norte 0 -- -- 30
2017-10-08 19:00:00 21.3 8 Norte 20 Norte 0 -- -- 26
2017-10-08 18:00:00 23 11 Norte 19 Norte 0 -- -- 25
2017-10-08 17:00:00 22.1 9 Nordeste 18 Nordeste 0 -- -- 35
2017-10-08 16:00:00 21.4 12 Este 21 Nordeste 0 -- -- 39
2017-10-08 15:00:00 21.8 8 Norte 18 Nordeste 0 -- -- 39
2017-10-08 14:00:00 20.5 13 Este 20 Este 0 -- -- 43
2017-10-08 13:00:00 20 5 Este 18 Este 0 -- -- 43
2017-10-08 12:00:00 18 6 Oeste 15 Oeste 0 -- -- 50
2017-10-08 11:00:00 15.9 9 Oeste 14 Oeste 0 -- -- 63
2017-10-08 10:00:00 12.6 15 Oeste 20 Oeste 0 -- -- 79
2017-10-08 09:00:00 10.5 15 Oeste 20 Oeste 0 -- -- 86
2017-10-08 08:00:00 10.2 19 Oeste 22 Oeste 0 -- -- 86
2017-10-08 07:00:00 10.5 19 Oeste 23 Oeste 0 -- -- 82
2017-10-08 06:00:00 11 17 Oeste 21 Oeste 0 -- -- 76
2017-10-08 05:00:00 11.4 15 Oeste 19 Oeste 0 -- -- 66
2017-10-08 04:00:00 12.2 12 Oeste 17 Oeste 0 -- -- 62
2017-10-08 03:00:00 12.4 11 Oeste 17 Oeste 0 -- -- 60
2017-10-08 02:00:00 12.5 13 Oeste 17 Oeste 0 -- -- 62
2017-10-08 01:00:00 12.9 13 Oeste 16 Oeste 0 -- -- 68
2017-10-08 00:00:00 13.5 10 Oeste 13 Oeste 0 -- -- 77
2017-10-07 23:00:00 14.5 6 Oeste 8 Oeste 0 -- -- 78
2017-10-07 22:00:00 14.6 7 Sudoeste 12 Sur 0 -- -- 75
2017-10-07 21:00:00 15.7 9 Sur 18 Este 0 -- -- 73
2017-10-07 20:00:00 16.1 7 Este 15 Nordeste 0 -- -- 48
2017-10-07 19:00:00 17.5 13 Este 20 Nordeste 0 -- -- 45
2017-10-07 18:00:00 18 13 Este 21 Nordeste 0 -- -- 43
2017-10-07 17:00:00 18.1 14 Nordeste 23 Este 0 -- -- 43
2017-10-07 16:00:00 17.9 17 Nordeste 27 Nordeste 0 -- -- 43
2017-10-07 15:00:00 18.6 13 Este 22 Nordeste 0 -- -- 40
2017-10-07 14:00:00 18.2 6 Norte 18 Nordeste 0 -- -- 40
2017-10-07 13:00:00 17.4 6 Este 16 Oeste 0 -- -- 40
2017-10-07 12:00:00 14.4 10 Oeste 24 Oeste 0 -- -- 47
2017-10-07 11:00:00 12.4 20 Oeste 26 Oeste 0 -- -- 52
2017-10-07 10:00:00 10.9 19 Oeste 26 Oeste 0 -- -- 54
2017-10-07 09:00:00 9 14 Oeste 23 Oeste 0 -- -- 58
2017-10-07 08:00:00 8.4 16 Oeste 21 Oeste 0 -- -- 59
2017-10-07 07:00:00 9.2 14 Oeste 25 Oeste 0 -- -- 57
2017-10-07 06:00:00 9.7 18 Oeste 26 Oeste 0 -- -- 56
2017-10-07 05:00:00 10.2 15 Oeste 26 Oeste 0 -- -- 56
2017-10-07 04:00:00 10.9 21 Oeste 31 Oeste 0 -- -- 55
2017-10-07 03:00:00 10.9 24 Oeste 31 Oeste 0 -- -- 59
2017-10-07 02:00:00 11.4 24 Oeste 43 Oeste 0 -- -- 60
2017-10-07 01:00:00 12.1 36 Oeste 53 Oeste 0 -- -- 61
2017-10-07 00:00:00 12.7 36 Oeste 49 Oeste 0 -- -- 66
2017-10-06 23:00:00 13.3 35 Oeste 56 Oeste 0 -- -- 66
2017-10-06 22:00:00 14.3 36 Oeste 63 Oeste 0 -- -- 63
2017-10-06 21:00:00 15.5 45 Oeste 61 Oeste 0 -- -- 62
2017-10-06 20:00:00 17.2 24 Noroeste 43 Noroeste 0 -- -- 57
2017-10-06 19:00:00 19.2 33 Noroeste 51 Noroeste 0 -- -- 53
2017-10-06 18:00:00 20.8 31 Noroeste 51 Noroeste 0 -- -- 51
2017-10-06 17:00:00 21.6 33 Noroeste 45 Oeste 0 -- -- 49
2017-10-06 16:00:00 21.2 29 Noroeste 42 Noroeste 0 -- -- 50
2017-10-06 15:00:00 21 28 Noroeste 41 Noroeste 0 -- -- 50
2017-10-06 14:00:00 20.1 27 Noroeste 44 Noroeste 0 -- -- 51
2017-10-06 13:00:00 18.9 29 Noroeste 41 Noroeste 0 -- -- 56
2017-10-06 12:00:00 17.4 24 Noroeste 40 Oeste 0 -- -- 57
2017-10-06 11:00:00 16.1 24 Oeste 40 Oeste 0 -- -- 58
2017-10-06 10:00:00 14.2 32 Oeste 45 Oeste 0 -- -- 66
2017-10-06 09:00:00 12.8 19 Oeste 27 Oeste 0 -- -- 74
2017-10-06 08:00:00 12 17 Oeste 25 Oeste 0 -- -- 79
2017-10-06 07:00:00 12.5 16 Oeste 26 Oeste 0 -- -- 78
2017-10-06 06:00:00 12.9 21 Oeste 31 Oeste 0 -- -- 78
2017-10-06 05:00:00 13.3 25 Oeste 37 Oeste 0 -- -- 77
2017-10-06 04:00:00 13.7 25 Oeste 31 Oeste 0 -- -- 77
2017-10-06 03:00:00 14.3 16 Oeste 42 Oeste 0 -- -- 76
2017-10-06 02:00:00 15.1 32 Oeste 45 Oeste 0 -- -- 72
2017-10-06 01:00:00 15.4 29 Oeste 43 Oeste 0 -- -- 73
2017-10-06 00:00:00 16.2 29 Oeste 38 Oeste 0 -- -- 72
2017-10-05 23:00:00 17.8 31 Oeste 51 Noroeste 0 -- -- 66
2017-10-05 22:00:00 19.8 32 Oeste 42 Oeste 0 -- -- 60
2017-10-05 21:00:00 21.6 23 Noroeste 36 Noroeste 0 -- -- 55
2017-10-05 20:00:00 23.3 22 Noroeste 32 Noroeste 0 -- -- 45
2017-10-05 19:00:00 25.8 15 Noroeste 24 Noroeste 0 -- -- 39
2017-10-05 18:00:00 26.9 15 Noroeste 27 Noroeste 0 -- -- 39
2017-10-05 17:00:00 27.3 16 Noroeste 29 Norte 0 -- -- 36
2017-10-05 16:00:00 26.5 20 Noroeste 32 Noroeste 0 -- -- 39
2017-10-05 15:00:00 25.8 10 Norte 26 Nordeste 0 -- -- 47
2017-10-05 14:00:00 24.1 15 Nordeste 26 Nordeste 0 -- -- 53
2017-10-05 13:00:00 24.1 10 Nordeste 18 Nordeste 0 -- -- 55
2017-10-05 12:00:00 23.7 12 Nordeste 18 Nordeste 0 -- -- 54
2017-10-05 11:00:00 20.7 12 Oeste 17 Oeste 0 -- -- 60
2017-10-05 10:00:00 17.9 17 Oeste 21 Oeste 0 -- -- 71
2017-10-05 09:00:00 16 18 Oeste 22 Oeste 0 -- -- 78
2017-10-05 08:00:00 15.8 17 Sudoeste 21 Oeste 0 -- -- 78
2017-10-05 07:00:00 15.8 17 Oeste 22 Oeste 0 -- -- 78
2017-10-05 06:00:00 16.3 15 Oeste 20 Oeste 0 -- -- 76
2017-10-05 05:00:00 16.7 15 Oeste 19 Oeste 0 -- -- 74
2017-10-05 04:00:00 17.3 14 Oeste 18 Oeste 0 -- -- 72
2017-10-05 03:00:00 17.5 15 Oeste 20 Oeste 0 -- -- 68
2017-10-05 02:00:00 17.8 15 Oeste 19 Oeste 0 -- -- 65
2017-10-05 01:00:00 18 16 Oeste 18 Oeste 0 -- -- 68
2017-10-05 00:00:00 18.6 12 Sudoeste 17 Sur 0 -- -- 64
2017-10-04 23:00:00 19.8 15 Sur 17 Sur 0 -- -- 63
2017-10-04 22:00:00 20.9 10 Sur 15 Este 0 -- -- 62
2017-10-04 21:00:00 20.8 10 Este 18 Este 0 -- -- 59
2017-10-04 20:00:00 22.1 9 Nordeste 15 Este 0 -- -- 49
2017-10-04 19:00:00 23.6 11 Este 18 Este 0 -- -- 44
2017-10-04 18:00:00 24 14 Este 23 Sudeste 0 -- -- 42
2017-10-04 17:00:00 24.1 13 Este 21 Nordeste 0 -- -- 44
2017-10-04 16:00:00 23.6 15 Este 24 Este 0 -- -- 50
2017-10-04 15:00:00 23.5 15 Nordeste 26 Nordeste 0 -- -- 52
2017-10-04 14:00:00 22.9 14 Este 23 Este 0 -- -- 55
2017-10-04 13:00:00 22.4 15 Nordeste 23 Nordeste 0 -- -- 56
2017-10-04 12:00:00 21.5 12 Nordeste 20 Nordeste 0 -- -- 59
2017-10-04 11:00:00 20.4 4 Sudeste 12 Este 0 -- -- 60
2017-10-04 10:00:00 16.7 4 Sur 17 Sur 0 -- -- 74
2017-10-04 09:00:00 13.5 14 Sur 17 Sudoeste 0 -- -- 87
2017-10-04 08:00:00 12.8 14 Sudoeste 18 Oeste 0 -- -- 88
2017-10-04 07:00:00 13 16 Oeste 19 Oeste 0 -- -- 84
2017-10-04 06:00:00 13.8 10 Oeste 13 Noroeste 0 -- -- 80
2017-10-04 05:00:00 14.6 6 Oeste 13 Sudoeste 0 -- -- 77
2017-10-04 04:00:00 15.1 8 Oeste 17 Oeste 0 -- -- 76
2017-10-04 03:00:00 15.6 12 Oeste 21 Oeste 0 -- -- 75
2017-10-04 02:00:00 15.9 13 Sudoeste 22 Oeste 0 -- -- 71
2017-10-04 01:00:00 16.4 15 Oeste 20 Oeste 0 -- -- 68
2017-10-04 00:00:00 17.7 18 Oeste 23 Noroeste 0 -- -- 64
2017-10-03 23:00:00 18.4 14 Oeste 15 Oeste 0 -- -- 62
2017-10-03 22:00:00 19.7 7 Noroeste 14 Norte 0 -- -- 62
2017-10-03 21:00:00 20.4 3 Noroeste 6 Este 0 -- -- 61
2017-10-03 20:00:00 20.7 5 Este 12 Nordeste 0 -- -- 60
2017-10-03 19:00:00 21.4 10 Nordeste 26 Norte 0 -- -- 58
2017-10-03 18:00:00 22.5 17 Norte 30 Norte 0 -- -- 54
2017-10-03 17:00:00 23.5 15 Norte 32 Noroeste 0 -- -- 51
2017-10-03 16:00:00 24.7 16 Norte 28 Noroeste 0 -- -- 48
2017-10-03 15:00:00 24.2 18 Noroeste 34 Noroeste 0 -- -- 51
2017-10-03 14:00:00 23.2 18 Noroeste 29 Noroeste 0 -- -- 57
2017-10-03 13:00:00 22.2 16 Noroeste 28 Noroeste 0 -- -- 61
2017-10-03 12:00:00 20.5 17 Noroeste 29 Noroeste 0 -- -- 66
2017-10-03 11:00:00 19 15 Oeste 21 Oeste 0 -- -- 73
2017-10-03 10:00:00 16.4 11 Oeste 18 Oeste 0 -- -- 85
2017-10-03 09:00:00 14.1 17 Oeste 21 Oeste 0 -- -- 92
2017-10-03 08:00:00 14.2 18 Oeste 22 Oeste 0 -- -- 91
2017-10-03 07:00:00 14.3 18 Oeste 21 Oeste 0 -- -- 90
2017-10-03 06:00:00 14.6 18 Oeste 19 Oeste 0 -- -- 90
2017-10-03 05:00:00 15.1 16 Oeste 22 Oeste 0 -- -- 88
2017-10-03 04:00:00 15.3 20 Oeste 24 Oeste 0 -- -- 88
2017-10-03 03:00:00 15.9 16 Oeste 23 Oeste 0 -- -- 85
2017-10-03 02:00:00 15.9 19 Oeste 23 Oeste 0 -- -- 86
2017-10-03 01:00:00 16.2 19 Oeste 24 Oeste 0 -- -- 84
2017-10-03 00:00:00 17.2 19 Oeste 22 Oeste 0 -- -- 80
2017-10-02 23:00:00 18.2 15 Oeste 19 Oeste 0 -- -- 77
2017-10-02 22:00:00 19.1 14 Oeste 23 Noroeste 0 -- -- 74
2017-10-02 21:00:00 20.1 14 Oeste 20 Noroeste 0 -- -- 69
2017-10-02 20:00:00 21.3 12 Noroeste 16 Noroeste 0 -- -- 65
2017-10-02 19:00:00 23 14 Noroeste 22 Noroeste 0 -- -- 59
2017-10-02 18:00:00 23.9 12 Noroeste 22 Noroeste 0 -- -- 56
2017-10-02 17:00:00 24.2 11 Noroeste 22 Noroeste 0 -- -- 55
2017-10-02 16:00:00 23.4 15 Noroeste 25 Noroeste 0 -- -- 57
2017-10-02 15:00:00 21.7 13 Noroeste 21 Oeste 0 -- -- 62
2017-10-02 14:00:00 20.6 13 Noroeste 30 Noroeste 0 -- -- 65
2017-10-02 13:00:00 19.4 18 Noroeste 27 Noroeste 0 -- -- 70
2017-10-02 12:00:00 18.4 19 Noroeste 34 Noroeste 0 -- -- 73
2017-10-02 11:00:00 17.3 27 Noroeste 40 Noroeste 0 -- -- 78
2017-10-02 10:00:00 16.4 20 Noroeste 32 Noroeste 0 -- -- 81
2017-10-02 09:00:00 15.2 21 Oeste 28 Oeste 0 -- -- 85
2017-10-02 08:00:00 14.9 22 Oeste 32 Oeste 0 -- -- 85
2017-10-02 07:00:00 14.5 26 Oeste 32 Oeste 0 -- -- 87
2017-10-02 06:00:00 14.7 21 Oeste 29 Oeste 0 -- -- 86
2017-10-02 05:00:00 14.8 26 Oeste 35 Oeste 0 -- -- 86
2017-10-02 04:00:00 14.9 21 Oeste 30 Oeste 0 -- -- 85
2017-10-02 03:00:00 15.3 23 Oeste 34 Oeste 0 -- -- 83
2017-10-02 02:00:00 15.2 23 Oeste 31 Oeste 0 -- -- 83
2017-10-02 01:00:00 15.9 22 Oeste 39 Oeste 0 -- -- 80
2017-10-02 00:00:00 16.3 28 Oeste 37 Oeste 0 -- -- 78
2017-10-01 23:00:00 16.9 26 Oeste 42 Oeste 0 -- -- 76
2017-10-01 22:00:00 17.3 24 Oeste 37 Noroeste 0 -- -- 75
2017-10-01 21:00:00 17.8 22 Oeste 32 Noroeste 0 -- -- 73
2017-10-01 20:00:00 18 17 Noroeste 32 Noroeste 0 -- -- 71
2017-10-01 19:00:00 18.3 23 Noroeste 42 Noroeste 0 -- -- 70
2017-10-01 18:00:00 18.5 28 Noroeste 43 Noroeste 0 -- -- 69
2017-10-01 17:00:00 18.7 29 Noroeste 42 Noroeste 0 -- -- 66
2017-10-01 16:00:00 18.9 29 Noroeste 40 Noroeste 0 -- -- 65
2017-10-01 15:00:00 19 27 Noroeste 40 Oeste 0 -- -- 63
2017-10-01 14:00:00 19.4 33 Noroeste 45 Noroeste 0 -- -- 61
2017-10-01 13:00:00 18.8 29 Noroeste 48 Oeste 0 -- -- 64
2017-10-01 12:00:00 17.6 24 Oeste 33 Oeste 0 -- -- 64
2017-10-01 11:00:00 15.7 22 Oeste 33 Oeste 0 -- -- 73
2017-10-01 10:00:00 14.6 26 Oeste 30 Oeste 0 -- -- 75
2017-10-01 09:00:00 14.2 17 Oeste 26 Oeste 0 -- -- 77
2017-10-01 08:00:00 14 18 Oeste 26 Oeste 0 -- -- 77
2017-10-01 07:00:00 13.9 21 Oeste 25 Oeste 0 -- -- 78
2017-10-01 06:00:00 14 18 Oeste 26 Oeste 0 -- -- 78
2017-10-01 05:00:00 14.5 23 Oeste 28 Oeste 0 -- -- 76
2017-10-01 04:00:00 14.9 17 Oeste 26 Oeste 0 -- -- 77
2017-10-01 03:00:00 15 17 Oeste 21 Oeste 0 -- -- 83
2017-10-01 02:00:00 15.4 17 Oeste 21 Oeste 0 -- -- 85
2017-10-01 01:00:00 15.8 14 Oeste 18 Oeste 0 -- -- 85
2017-10-01 00:00:00 15.7 11 Oeste 14 Noroeste 0 -- -- 85
2017-09-30 23:00:00 15.9 12 Norte 19 Noroeste 0 -- -- 84
2017-09-30 22:00:00 16.6 6 Norte 12 Norte 0 -- -- 82
2017-09-30 21:00:00 17.1 0 Calma 4 Sudoeste 0 -- -- 80
2017-09-30 20:00:00 17.4 0 Calma 13 Nordeste 0 -- -- 78
2017-09-30 19:00:00 17.9 9 Nordeste 15 Nordeste 0 -- -- 76
2017-09-30 18:00:00 18.1 8 Nordeste 13 Este 0 -- -- 75
2017-09-30 17:00:00 18.2 6 Nordeste 17 Nordeste 0 -- -- 73
2017-09-30 16:00:00 18.3 5 Norte 12 Nordeste 0 -- -- 71
2017-09-30 15:00:00 17.2 7 Nordeste 24 Norte 0 -- -- 78
2017-09-30 14:00:00 17.7 17 Norte 30 Noroeste 0 -- -- 75
2017-09-30 13:00:00 18 18 Norte 27 Norte 0 -- -- 75
2017-09-30 12:00:00 18.9 12 Norte 21 Norte 0 -- -- 67
2017-09-30 11:00:00 18.3 7 Norte 14 Oeste 0 -- -- 62
2017-09-30 10:00:00 15.6 12 Oeste 14 Sudoeste 0 -- -- 66
2017-09-30 09:00:00 15.4 9 Sudoeste 10 Sudoeste 0 -- -- 63
2017-09-30 08:00:00 15.9 6 Oeste 13 Oeste 0 -- -- 62
2017-09-30 07:00:00 16 8 Noroeste 15 Oeste 0 -- -- 62
2017-09-30 06:00:00 15.9 12 Oeste 14 Oeste 0 -- -- 60
2017-09-30 05:00:00 16.2 9 Oeste 16 Oeste 0 -- -- 60
2017-09-30 04:00:00 17 9 Oeste 14 Oeste 0 -- -- 59
2017-09-30 03:00:00 17.3 9 Oeste 21 Oeste 0 -- -- 59
2017-09-30 02:00:00 17.2 16 Oeste 19 Oeste 0 -- -- 60
2017-09-30 01:00:00 19.1 9 Sudoeste 12 Sudoeste 0 -- -- 53
2017-09-30 00:00:00 19.6 11 Sur 15 Sur 0 -- -- 52
2017-09-29 23:00:00 20.2 12 Sur 14 Sur 0 -- -- 48
2017-09-29 22:00:00 21.6 8 Sudeste 17 Este 0 -- -- 54
2017-09-29 21:00:00 21.5 12 Este 15 Este 0 -- -- 44
2017-09-29 20:00:00 21.9 10 Nordeste 17 Este 0 -- -- 44
2017-09-29 19:00:00 23.3 17 Este 20 Este 0 -- -- 41
2017-09-29 18:00:00 23.9 13 Este 19 Este 0 -- -- 43
2017-09-29 17:00:00 23.9 12 Este 20 Este 0 -- -- 44
2017-09-29 16:00:00 23.4 13 Este 24 Este 0 -- -- 50
2017-09-29 15:00:00 22.7 13 Este 23 Este 0 -- -- 57
2017-09-29 14:00:00 22.3 13 Nordeste 23 Nordeste 0 -- -- 62
2017-09-29 13:00:00 21.9 16 Nordeste 20 Este 0 -- -- 63
2017-09-29 12:00:00 21.5 9 Este 12 Este 0 -- -- 63
2017-09-29 11:00:00 18.8 8 Oeste 15 Oeste 0 -- -- 70
2017-09-29 10:00:00 16.1 10 Oeste 13 Oeste 0 -- -- 81
2017-09-29 09:00:00 14.9 5 Sudoeste 9 Oeste 0 -- -- 83
2017-09-29 08:00:00 15.5 0 Calma -- -- 0 -- -- 83
2017-09-29 07:00:00 15.4 2 Oeste 9 Sudoeste 0 -- -- 82
2017-09-29 06:00:00 16.1 5 Oeste 10 Oeste 0 -- -- 79
2017-09-29 05:00:00 16.3 6 Oeste 8 Oeste 0 -- -- 79
2017-09-29 04:00:00 16.9 6 Oeste 10 Oeste 0 -- -- 77
2017-09-29 03:00:00 17.3 9 Oeste 13 Oeste 0 -- -- 76
2017-09-29 02:00:00 16.7 13 Sur 18 Sur 0 -- -- 77
2017-09-29 01:00:00 17.1 14 Sur 17 Sur 0 -- -- 79
2017-09-29 00:00:00 16.8 16 Sur 18 Sur 0 -- -- 80
2017-09-28 23:00:00 18.7 12 Sur 17 Sur 0 -- -- 73
2017-09-28 22:00:00 19.3 12 Sur 22 Sudeste 0 -- -- 70
2017-09-28 21:00:00 19.7 14 Sudeste 26 Sudeste 0 -- -- 68
2017-09-28 20:00:00 21 14 Este 33 Nordeste 0 -- -- 64
2017-09-28 19:00:00 22.6 25 Este 31 Este 0 -- -- 58
2017-09-28 18:00:00 23.5 20 Nordeste 32 Este 0 -- -- 48
2017-09-28 17:00:00 23.7 18 Este 27 Este 0 -- -- 50
2017-09-28 16:00:00 23.4 18 Este 27 Este 0 -- -- 55
2017-09-28 15:00:00 22.5 17 Este 24 Este 0 -- -- 58
2017-09-28 14:00:00 21.9 13 Este 22 Nordeste 0 -- -- 61
2017-09-28 13:00:00 20.9 12 Nordeste 20 Este 0 -- -- 66
2017-09-28 12:00:00 19.4 11 Nordeste 18 Nordeste 0 -- -- 72
2017-09-28 11:00:00 17.7 11 Este 16 Este 0 -- -- 79
2017-09-28 10:00:00 16.8 3 Sudoeste 17 Sudoeste 0 -- -- 79
2017-09-28 09:00:00 13.8 14 Sudoeste 17 Sudoeste 0 -- -- 88
2017-09-28 08:00:00 15.1 7 Sudoeste 10 Sudoeste 0 -- -- 82
2017-09-28 07:00:00 16 0 Calma 6 Sur 0 -- -- 82
2017-09-28 06:00:00 16 5 Sur 8 Sur 0 -- -- 79
2017-09-28 05:00:00 16.6 3 Noroeste 9 Oeste 0 -- -- 78
2017-09-28 04:00:00 16.3 5 Oeste 17 Oeste 0 -- -- 80
2017-09-28 03:00:00 16.7 11 Oeste 15 Oeste 0 -- -- 79
2017-09-28 02:00:00 16.9 12 Sudoeste 17 Sudoeste 0 -- -- 78
2017-09-28 01:00:00 16.5 16 Sudoeste 21 Sur 0 -- -- 83
2017-09-28 00:00:00 17.1 17 Sur 26 Sur 0 -- -- 81
2017-09-27 23:00:00 18 19 Sur 25 Sur 0 -- -- 78
2017-09-27 22:00:00 18.2 13 Sudeste 23 Sudeste 0 -- -- 78
2017-09-27 21:00:00 18.7 15 Sudeste 28 Sudeste 0 -- -- 76
2017-09-27 20:00:00 20.1 18 Este 26 Este 0 -- -- 69
2017-09-27 19:00:00 22.2 23 Este 37 Nordeste 0 -- -- 52
2017-09-27 18:00:00 22.8 23 Este 31 Este 0 -- -- 48
2017-09-27 17:00:00 22.9 18 Este 27 Este 0 -- -- 47
2017-09-27 16:00:00 22.6 15 Este 31 Este 0 -- -- 48
2017-09-27 15:00:00 22.2 19 Este 28 Este 0 -- -- 50
2017-09-27 14:00:00 21.7 15 Nordeste 26 Este 0 -- -- 55
2017-09-27 13:00:00 21 17 Nordeste 25 Nordeste 0 -- -- 59
2017-09-27 12:00:00 20.1 18 Este 24 Este 0 -- -- 61
2017-09-27 11:00:00 18.6 7 Oeste 13 Oeste 0 -- -- 66
2017-09-27 10:00:00 15.9 8 Oeste 17 Oeste 0 -- -- 76
2017-09-27 09:00:00 15.7 2 Sudoeste 9 Sur 0 -- -- 73
2017-09-27 08:00:00 14.7 5 Sudeste 6 Sudeste 0 -- -- 79
2017-09-27 07:00:00 14.2 4 Sudoeste 11 Oeste 0 -- -- 81
2017-09-27 06:00:00 14.4 10 Oeste 12 Oeste 0 -- -- 79
2017-09-27 05:00:00 14.6 5 Sudoeste 9 Sur 0 -- -- 78
2017-09-27 04:00:00 14.5 5 Sudoeste 14 Sudoeste 0 -- -- 81
2017-09-27 03:00:00 14.8 13 Sudoeste 18 Sudoeste 0 -- -- 78
2017-09-27 02:00:00 14.9 13 Sudoeste 17 Sudoeste 0 -- -- 81
2017-09-27 01:00:00 15.2 16 Sudoeste 18 Sur 0 -- -- 81
2017-09-27 00:00:00 15.2 16 Sudoeste 20 Sur 0 -- -- 79
2017-09-26 23:00:00 16.7 16 Sur 19 Sur 0 -- -- 76
2017-09-26 22:00:00 17.7 9 Sur 14 Sudeste 0 -- -- 66
2017-09-26 21:00:00 18 8 Este 13 Este 0 -- -- 57
2017-09-26 20:00:00 18.5 10 Este 14 Este 0 -- -- 56
2017-09-26 19:00:00 19.5 8 Este 19 Nordeste 0 -- -- 52
2017-09-26 18:00:00 20 14 Nordeste 24 Nordeste 0 -- -- 50
2017-09-26 17:00:00 21 12 Norte 25 Nordeste 0 -- -- 49
2017-09-26 16:00:00 20.5 13 Nordeste 27 Nordeste 0 -- -- 51
2017-09-26 15:00:00 20.4 8 Noroeste 18 Noroeste 0 -- -- 52
2017-09-26 14:00:00 19.4 9 Noroeste 21 Oeste 0 -- -- 55
2017-09-26 13:00:00 18.1 14 Oeste 27 Noroeste 0 -- -- 60
2017-09-26 12:00:00 16.6 15 Oeste 29 Oeste 0 -- -- 65
2017-09-26 11:00:00 15.3 26 Oeste 36 Oeste 0 -- -- 70
2017-09-26 10:00:00 13.8 24 Oeste 33 Oeste 0 -- -- 76
2017-09-26 09:00:00 12.4 19 Oeste 29 Oeste 0 -- -- 81
2017-09-26 08:00:00 12.4 13 Oeste 33 Oeste 0 -- -- 81
2017-09-26 07:00:00 12.5 29 Oeste 45 Oeste 0 -- -- 81
2017-09-26 06:00:00 12.5 28 Oeste 43 Oeste 0 -- -- 81
2017-09-26 05:00:00 12.7 33 Oeste 40 Oeste 0 -- -- 80
2017-09-26 04:00:00 12.6 19 Oeste 24 Oeste 0 -- -- 80
2017-09-26 03:00:00 12.8 19 Oeste 35 Oeste 0 -- -- 80
2017-09-26 02:00:00 13.4 27 Oeste 44 Oeste 0 -- -- 78
2017-09-26 01:00:00 14.1 35 Oeste 46 Oeste 0 -- -- 75
2017-09-26 00:00:00 14.7 33 Oeste 39 Oeste 0 -- -- 73
2017-09-25 23:00:00 15.7 21 Oeste 28 Noroeste 0 -- -- 66
2017-09-25 22:00:00 16.6 17 Oeste 37 Oeste 0 -- -- 62
2017-09-25 21:00:00 17.5 22 Noroeste 44 Noroeste 0 -- -- 59
2017-09-25 20:00:00 18.3 31 Noroeste 45 Noroeste 0 -- -- 55
2017-09-25 19:00:00 19.7 31 Noroeste 45 Noroeste 0 -- -- 56
2017-09-25 18:00:00 21.9 32 Noroeste 43 Noroeste 0 -- -- 51
2017-09-25 17:00:00 22.5 25 Norte 43 Norte 0 -- -- 48
2017-09-25 16:00:00 23.7 23 Norte 41 Noroeste 0 -- -- 41
2017-09-25 15:00:00 23.8 26 Noroeste 39 Noroeste 0 -- -- 42
2017-09-25 14:00:00 23.5 26 Noroeste 39 Norte 0 -- -- 43
2017-09-25 13:00:00 23.5 18 Noroeste 28 Norte 0 -- -- 46
2017-09-25 12:00:00 22.4 10 Norte 27 Oeste 0 -- -- 49
2017-09-25 11:00:00 20.5 21 Oeste 30 Oeste 0 -- -- 49
2017-09-25 10:00:00 17.7 21 Oeste 31 Oeste 0 -- -- 63
2017-09-25 09:00:00 17.1 21 Oeste 31 Oeste 0 -- -- 64
2017-09-25 08:00:00 17.6 26 Oeste 37 Oeste 0 -- -- 53
2017-09-25 07:00:00 18.2 28 Oeste 40 Oeste 0 -- -- 51
2017-09-25 06:00:00 19.2 26 Oeste 35 Oeste 0 -- -- 48
2017-09-25 05:00:00 18.4 19 Oeste 27 Oeste 0 -- -- 51
2017-09-25 04:00:00 18.7 24 Oeste 30 Oeste 0 -- -- 49
2017-09-25 03:00:00 18.8 24 Oeste 26 Oeste 0 -- -- 50
2017-09-25 02:00:00 19.8 19 Oeste 25 Oeste 0 -- -- 47
2017-09-25 01:00:00 19.8 18 Oeste 23 Oeste 0 -- -- 49
2017-09-25 00:00:00 20.2 14 Sudoeste 18 Sudoeste 0 -- -- 50
2017-09-24 23:00:00 21.3 13 Sur 17 Sur 0 -- -- 46
2017-09-24 22:00:00 22.8 12 Sur 21 Este 0 -- -- 43
2017-09-24 21:00:00 23.5 18 Este 21 Este 0 -- -- 41
2017-09-24 20:00:00 23.4 13 Este 18 Este 0 -- -- 42
2017-09-24 19:00:00 24.4 12 Este 20 Este 0 -- -- 41
2017-09-24 18:00:00 24.9 17 Este 28 Este 0 -- -- 40
2017-09-24 17:00:00 25.3 16 Nordeste 22 Nordeste 0 -- -- 40
2017-09-24 16:00:00 25.1 15 Nordeste 26 Nordeste 0 -- -- 42
2017-09-24 15:00:00 24.9 15 Nordeste 21 Este 0 -- -- 47
2017-09-24 14:00:00 24.2 15 Nordeste 21 Nordeste 0 -- -- 51
2017-09-24 13:00:00 23.6 14 Nordeste 20 Nordeste 0 -- -- 52
2017-09-24 12:00:00 23.4 10 Nordeste 21 Oeste 0 -- -- 49
2017-09-24 11:00:00 20.5 14 Oeste 18 Oeste 0 -- -- 57
2017-09-24 10:00:00 17.8 12 Oeste 19 Oeste 0 -- -- 68
2017-09-24 09:00:00 15.9 17 Oeste 22 Oeste 0 -- -- 72
2017-09-24 08:00:00 15.4 15 Sudoeste 22 Sudoeste 0 -- -- 72
2017-09-24 07:00:00 16.4 13 Oeste 20 Sudoeste 0 -- -- 69
2017-09-24 06:00:00 16.3 13 Sudoeste 17 Oeste 0 -- -- 69
2017-09-24 05:00:00 16 13 Oeste 15 Oeste 0 -- -- 70
2017-09-24 04:00:00 17.1 13 Oeste 16 Oeste 0 -- -- 66
2017-09-24 03:00:00 17.7 14 Oeste 17 Oeste 0 -- -- 63
2017-09-24 02:00:00 18 14 Oeste 18 Oeste 0 -- -- 64
2017-09-24 01:00:00 17.8 15 Oeste 17 Oeste 0 -- -- 65
2017-09-24 00:00:00 18.9 12 Sudoeste 16 Sudoeste 0 -- -- 63
2017-09-23 23:00:00 18.9 13 Sudoeste 19 Sudoeste 0 -- -- 60
2017-09-23 22:00:00 19.4 13 Sur 14 Sur 0 -- -- 57
2017-09-23 21:00:00 20.3 9 Este 13 Este 0 -- -- 53
2017-09-23 20:00:00 20.5 11 Este 20 Este 0 -- -- 57
2017-09-23 19:00:00 21.6 15 Este 22 Este 0 -- -- 54
2017-09-23 18:00:00 21.9 16 Este 23 Este 0 -- -- 50
2017-09-23 17:00:00 21.9 16 Este 25 Este 0 -- -- 52
2017-09-23 16:00:00 21.6 17 Este 25 Este 0 -- -- 58
2017-09-23 15:00:00 21.4 13 Este 20 Este 0 -- -- 60
2017-09-23 14:00:00 20.4 11 Nordeste 18 Nordeste 0 -- -- 65
2017-09-23 13:00:00 19.5 8 Nordeste 14 Nordeste 0 -- -- 71
2017-09-23 12:00:00 17.9 7 Nordeste 14 Este 0 -- -- 75
2017-09-23 11:00:00 16.7 8 Este 12 Este 0 -- -- 77
2017-09-23 10:00:00 15.1 4 Este 10 Sudeste 0 -- -- 85
2017-09-23 09:00:00 11.9 9 Sudoeste 14 Oeste 0 -- -- 98
2017-09-23 08:00:00 11.3 14 Oeste 16 Oeste 0 -- -- 97
2017-09-23 07:00:00 12.1 10 Oeste 14 Oeste 0 -- -- 96
2017-09-23 06:00:00 12.3 9 Oeste 14 Oeste 0 -- -- 97
2017-09-23 05:00:00 12.9 11 Oeste 19 Oeste 0 -- -- 96
2017-09-23 04:00:00 13.9 8 Sudoeste 12 Oeste 0 -- -- 89
2017-09-23 03:00:00 14.6 6 Nordeste 9 Nordeste 0 -- -- 83
2017-09-23 02:00:00 14.1 5 Este 15 Sudeste 0 -- -- 86
2017-09-23 01:00:00 14.3 12 Este 15 Este 0 -- -- 96
2017-09-23 00:00:00 14.7 12 Este 42 Sudoeste 0 -- -- 90